DCS642 ETOU-LSMD
Flight info
| Callsign | DCS642 |
|---|---|
| Flight time | 0h 50m |
| Altitude | 33000 |
| Route | FKS Y163 NATOR N850 TRA N491 ZUE |
| Aircraft | P180/L-SBDFGM3RWXY/LB1 |
Departure
| Time | 2026-04-29 09:32 |
|---|---|
| Airport | Wiesbaden Army Airfield (ETOU) |
Arrival
| Time | 2026-04-29 10:23 |
|---|---|
| Airport | Dübendorf Air Base (LSMD) |
| Time | Latitude | Longitude | Altitude | Speed | Heading |
|---|---|---|---|---|---|
| 2026-04-29 09:13 | 50.04654 | 8.32784 | 454 ft | 0 kts | 160° |
| 2026-04-29 09:25 | 50.04647 | 8.32788 | 453 ft | 4 kts | 160° |
| 2026-04-29 09:26 | 50.04632 | 8.32785 | 453 ft | 4 kts | 225° |
| 2026-04-29 09:26 | 50.04617 | 8.32726 | 453 ft | 7 kts | 249° |
| 2026-04-29 09:26 | 50.04591 | 8.32629 | 453 ft | 7 kts | 228° |
| 2026-04-29 09:26 | 50.04562 | 8.32635 | 452 ft | 6 kts | 159° |
| 2026-04-29 09:27 | 50.04527 | 8.32635 | 452 ft | 4 kts | 244° |
| 2026-04-29 09:27 | 50.04512 | 8.32574 | 452 ft | 8 kts | 249° |
| 2026-04-29 09:27 | 50.04498 | 8.32515 | 452 ft | 10 kts | 249° |
| 2026-04-29 09:27 | 50.04473 | 8.32407 | 452 ft | 12 kts | 256° |
| 2026-04-29 09:28 | 50.04462 | 8.32269 | 452 ft | 14 kts | 262° |
| 2026-04-29 09:28 | 50.04448 | 8.32106 | 453 ft | 16 kts | 262° |
| 2026-04-29 09:28 | 50.04433 | 8.31930 | 453 ft | 15 kts | 263° |
| 2026-04-29 09:28 | 50.04459 | 8.31848 | 454 ft | 9 kts | 328° |
| 2026-04-29 09:29 | 50.04544 | 8.31778 | 454 ft | 12 kts | 324° |
| 2026-04-29 09:29 | 50.04666 | 8.31644 | 454 ft | 12 kts | 323° |
| 2026-04-29 09:29 | 50.04669 | 8.31524 | 454 ft | 13 kts | 252° |
| 2026-04-29 09:30 | 50.04641 | 8.31372 | 454 ft | 15 kts | 253° |
| 2026-04-29 09:30 | 50.04630 | 8.31254 | 457 ft | 7 kts | 288° |
| 2026-04-29 09:30 | 50.04650 | 8.31189 | 459 ft | 6 kts | 296° |
| 2026-04-29 09:30 | 50.04679 | 8.31134 | 460 ft | 8 kts | 337° |
| 2026-04-29 09:31 | 50.04716 | 8.31156 | 459 ft | 0 kts | 74° |
| 2026-04-29 09:31 | 50.04720 | 8.31177 | 458 ft | 20 kts | 74° |
| 2026-04-29 09:32 | 50.04840 | 8.31806 | 454 ft | 94 kts | 73° |
| 2026-04-29 09:32 | 50.05067 | 8.32977 | 508 ft | 131 kts | 73° |
| 2026-04-29 09:32 | 50.05356 | 8.34515 | 895 ft | 155 kts | 74° |
| 2026-04-29 09:32 | 50.05656 | 8.36119 | 1738 ft | 152 kts | 74° |
| 2026-04-29 09:33 | 50.06104 | 8.37611 | 2582 ft | 156 kts | 53° |
| 2026-04-29 09:33 | 50.06943 | 8.38716 | 3383 ft | 162 kts | 33° |
| 2026-04-29 09:33 | 50.08061 | 8.39171 | 4259 ft | 173 kts | 8° |
| 2026-04-29 09:33 | 50.09257 | 8.38789 | 5115 ft | 185 kts | 342° |
| 2026-04-29 09:34 | 50.10398 | 8.37604 | 5402 ft | 216 kts | 323° |
| 2026-04-29 09:34 | 50.11485 | 8.35908 | 5370 ft | 227 kts | 317° |
| 2026-04-29 09:34 | 50.12585 | 8.34092 | 5293 ft | 233 kts | 317° |
| 2026-04-29 09:34 | 50.13754 | 8.32368 | 5281 ft | 231 kts | 322° |
| 2026-04-29 09:35 | 50.14948 | 8.30702 | 5274 ft | 231 kts | 322° |
| 2026-04-29 09:35 | 50.16135 | 8.29024 | 5285 ft | 231 kts | 321° |
| 2026-04-29 09:35 | 50.17319 | 8.27319 | 5276 ft | 232 kts | 321° |
| 2026-04-29 09:35 | 50.18514 | 8.25620 | 5271 ft | 232 kts | 321° |
| 2026-04-29 09:36 | 50.19700 | 8.23914 | 5268 ft | 231 kts | 321° |
| 2026-04-29 09:36 | 50.20885 | 8.22226 | 5265 ft | 231 kts | 321° |
| 2026-04-29 09:36 | 50.22069 | 8.20532 | 5269 ft | 231 kts | 321° |
| 2026-04-29 09:36 | 50.23255 | 8.18828 | 5270 ft | 233 kts | 320° |
| 2026-04-29 09:37 | 50.24162 | 8.16737 | 5271 ft | 239 kts | 288° |
| 2026-04-29 09:37 | 50.24194 | 8.14167 | 5397 ft | 237 kts | 256° |
| 2026-04-29 09:37 | 50.23520 | 8.11957 | 5891 ft | 222 kts | 239° |
| 2026-04-29 09:37 | 50.22800 | 8.09906 | 6749 ft | 209 kts | 240° |
| 2026-04-29 09:38 | 50.22096 | 8.07934 | 7516 ft | 208 kts | 240° |
| 2026-04-29 09:38 | 50.21378 | 8.05948 | 8198 ft | 213 kts | 241° |
| 2026-04-29 09:38 | 50.20653 | 8.03927 | 8862 ft | 214 kts | 242° |
| 2026-04-29 09:38 | 50.19921 | 8.01878 | 9500 ft | 216 kts | 242° |
| 2026-04-29 09:39 | 50.19191 | 7.99835 | 10153 ft | 217 kts | 243° |
| 2026-04-29 09:39 | 50.18455 | 7.97771 | 10771 ft | 218 kts | 243° |
| 2026-04-29 09:39 | 50.17706 | 7.95683 | 11316 ft | 221 kts | 242° |
| 2026-04-29 09:39 | 50.16970 | 7.93631 | 11904 ft | 220 kts | 243° |
| 2026-04-29 09:40 | 50.16214 | 7.91526 | 12415 ft | 224 kts | 243° |
| 2026-04-29 09:40 | 50.15459 | 7.89421 | 13023 ft | 222 kts | 242° |
| 2026-04-29 09:40 | 50.14703 | 7.87319 | 13573 ft | 224 kts | 243° |
| 2026-04-29 09:40 | 50.13933 | 7.85178 | 14101 ft | 228 kts | 243° |
| 2026-04-29 09:41 | 50.13163 | 7.83031 | 14642 ft | 227 kts | 244° |
| 2026-04-29 09:41 | 50.12380 | 7.80859 | 15037 ft | 232 kts | 244° |
| 2026-04-29 09:41 | 50.11587 | 7.78662 | 15526 ft | 233 kts | 243° |
| 2026-04-29 09:41 | 50.10637 | 7.76614 | 16004 ft | 237 kts | 221° |
| 2026-04-29 09:42 | 50.09133 | 7.75665 | 16438 ft | 239 kts | 185° |
| 2026-04-29 09:42 | 50.07474 | 7.75678 | 16863 ft | 240 kts | 174° |
| 2026-04-29 09:42 | 50.05813 | 7.75872 | 17384 ft | 239 kts | 173° |
| 2026-04-29 09:42 | 50.04144 | 7.76046 | 17827 ft | 241 kts | 175° |
| 2026-04-29 09:43 | 50.02458 | 7.76175 | 18245 ft | 244 kts | 174° |
| 2026-04-29 09:43 | 50.00740 | 7.76319 | 18600 ft | 249 kts | 174° |
| 2026-04-29 09:43 | 49.99011 | 7.76498 | 19004 ft | 248 kts | 171° |
| 2026-04-29 09:43 | 49.97470 | 7.77524 | 19382 ft | 241 kts | 136° |
| 2026-04-29 09:44 | 49.96475 | 7.79545 | 19694 ft | 235 kts | 108° |
| 2026-04-29 09:44 | 49.95926 | 7.81931 | 20030 ft | 235 kts | 105° |
| 2026-04-29 09:44 | 49.95378 | 7.84330 | 20386 ft | 237 kts | 104° |
| 2026-04-29 09:44 | 49.94827 | 7.86750 | 20743 ft | 238 kts | 105° |
| 2026-04-29 09:45 | 49.94277 | 7.89154 | 21087 ft | 240 kts | 104° |
| 2026-04-29 09:45 | 49.93713 | 7.91601 | 21444 ft | 242 kts | 105° |
| 2026-04-29 09:45 | 49.93145 | 7.94065 | 21810 ft | 243 kts | 105° |
| 2026-04-29 09:45 | 49.92574 | 7.96545 | 22236 ft | 245 kts | 105° |
| 2026-04-29 09:46 | 49.91998 | 7.99044 | 22670 ft | 247 kts | 105° |
| 2026-04-29 09:46 | 49.91416 | 8.01573 | 23025 ft | 252 kts | 105° |
| 2026-04-29 09:46 | 49.90819 | 8.04160 | 23434 ft | 255 kts | 106° |
| 2026-04-29 09:46 | 49.90214 | 8.06763 | 23882 ft | 257 kts | 106° |
| 2026-04-29 09:47 | 49.89606 | 8.09384 | 24266 ft | 259 kts | 106° |
| 2026-04-29 09:47 | 49.88992 | 8.12029 | 24633 ft | 262 kts | 106° |
| 2026-04-29 09:47 | 49.88372 | 8.14705 | 24998 ft | 265 kts | 106° |
| 2026-04-29 09:47 | 49.87744 | 8.17409 | 25406 ft | 267 kts | 107° |
| 2026-04-29 09:48 | 49.87109 | 8.20128 | 25798 ft | 270 kts | 107° |
| 2026-04-29 09:48 | 49.86458 | 8.22920 | 26181 ft | 273 kts | 107° |
| 2026-04-29 09:48 | 49.85817 | 8.25666 | 26566 ft | 276 kts | 107° |
| 2026-04-29 09:48 | 49.85160 | 8.28474 | 26961 ft | 279 kts | 107° |
| 2026-04-29 09:49 | 49.84498 | 8.31307 | 27378 ft | 281 kts | 108° |
| 2026-04-29 09:49 | 49.83827 | 8.34161 | 27800 ft | 283 kts | 108° |
| 2026-04-29 09:49 | 49.83153 | 8.37042 | 28215 ft | 286 kts | 108° |
| 2026-04-29 09:49 | 49.82468 | 8.39950 | 28636 ft | 289 kts | 108° |
| 2026-04-29 09:50 | 49.81777 | 8.42889 | 29058 ft | 292 kts | 108° |
| 2026-04-29 09:50 | 49.81058 | 8.45848 | 29386 ft | 299 kts | 112° |
| 2026-04-29 09:50 | 49.79980 | 8.48649 | 29400 ft | 316 kts | 128° |
| 2026-04-29 09:50 | 49.78400 | 8.51126 | 29421 ft | 331 kts | 142° |
| 2026-04-29 09:51 | 49.76416 | 8.53059 | 29435 ft | 343 kts | 156° |
| 2026-04-29 09:51 | 49.74136 | 8.54311 | 29456 ft | 353 kts | 169° |
| 2026-04-29 09:51 | 49.71676 | 8.54796 | 29474 ft | 361 kts | 181° |
| 2026-04-29 09:51 | 49.69161 | 8.54475 | 29489 ft | 367 kts | 194° |
| 2026-04-29 09:52 | 49.64099 | 8.52389 | 29583 ft | 380 kts | 198° |
| 2026-04-29 09:52 | 49.61491 | 8.51632 | 29890 ft | 384 kts | 190° |
| 2026-04-29 09:52 | 49.58810 | 8.51378 | 30167 ft | 387 kts | 186° |
| 2026-04-29 09:53 | 49.56117 | 8.51276 | 30477 ft | 387 kts | 185° |
| 2026-04-29 09:53 | 49.53473 | 8.51001 | 30780 ft | 385 kts | 190° |
| 2026-04-29 09:53 | 49.50819 | 8.50512 | 31087 ft | 384 kts | 191° |
| 2026-04-29 09:53 | 49.48155 | 8.50111 | 31395 ft | 385 kts | 188° |
| 2026-04-29 09:54 | 49.45485 | 8.49843 | 31698 ft | 385 kts | 187° |
| 2026-04-29 09:54 | 49.42817 | 8.49528 | 31982 ft | 384 kts | 189° |
| 2026-04-29 09:54 | 49.40159 | 8.49139 | 32258 ft | 384 kts | 190° |
| 2026-04-29 09:54 | 49.37496 | 8.48767 | 32546 ft | 384 kts | 189° |
| 2026-04-29 09:55 | 49.34867 | 8.48451 | 32825 ft | 384 kts | 189° |
| 2026-04-29 09:55 | 49.32209 | 8.48119 | 33111 ft | 383 kts | 189° |
| 2026-04-29 09:55 | 49.29547 | 8.47761 | 33224 ft | 387 kts | 189° |
| 2026-04-29 09:55 | 49.26846 | 8.47400 | 33223 ft | 393 kts | 189° |
| 2026-04-29 09:56 | 49.21324 | 8.46692 | 33186 ft | 402 kts | 189° |
| 2026-04-29 09:56 | 49.15705 | 8.45955 | 33209 ft | 408 kts | 190° |
| 2026-04-29 09:57 | 49.10056 | 8.45231 | 33201 ft | 412 kts | 190° |
| 2026-04-29 09:57 | 49.04394 | 8.44072 | 33197 ft | 408 kts | 199° |
| 2026-04-29 09:58 | 48.98842 | 8.42124 | 33179 ft | 411 kts | 198° |
| 2026-04-29 09:58 | 48.93272 | 8.40192 | 33181 ft | 411 kts | 200° |
| 2026-04-29 09:59 | 48.87723 | 8.38266 | 33182 ft | 413 kts | 199° |
| 2026-04-29 09:59 | 48.82124 | 8.36324 | 33181 ft | 413 kts | 199° |
| 2026-04-29 10:00 | 48.76523 | 8.34386 | 33172 ft | 412 kts | 200° |
| 2026-04-29 10:00 | 48.70976 | 8.32290 | 33176 ft | 410 kts | 200° |
| 2026-04-29 10:01 | 48.65419 | 8.30303 | 33178 ft | 410 kts | 200° |
| 2026-04-29 10:01 | 48.59868 | 8.28263 | 33175 ft | 411 kts | 200° |
| 2026-04-29 10:02 | 48.54342 | 8.26274 | 33170 ft | 411 kts | 200° |
| 2026-04-29 10:02 | 48.48626 | 8.25043 | 33151 ft | 422 kts | 188° |
| 2026-04-29 10:03 | 48.42711 | 8.25919 | 33142 ft | 431 kts | 176° |
| 2026-04-29 10:03 | 48.36794 | 8.27340 | 33146 ft | 430 kts | 177° |
| 2026-04-29 10:04 | 48.30947 | 8.28772 | 33147 ft | 424 kts | 176° |
| 2026-04-29 10:04 | 48.25168 | 8.30156 | 33136 ft | 417 kts | 177° |
| 2026-04-29 10:05 | 48.22311 | 8.30842 | 33005 ft | 416 kts | 176° |
| 2026-04-29 10:05 | 48.19436 | 8.31539 | 32475 ft | 421 kts | 177° |
| 2026-04-29 10:05 | 48.16541 | 8.32236 | 31919 ft | 422 kts | 177° |
| 2026-04-29 10:05 | 48.13645 | 8.32934 | 31364 ft | 422 kts | 177° |
| 2026-04-29 10:06 | 48.10746 | 8.33645 | 30810 ft | 422 kts | 176° |
| 2026-04-29 10:06 | 48.07854 | 8.34358 | 30254 ft | 421 kts | 176° |
| 2026-04-29 10:06 | 48.05005 | 8.35036 | 29666 ft | 419 kts | 176° |
| 2026-04-29 10:06 | 48.02136 | 8.35728 | 29110 ft | 416 kts | 176° |
| 2026-04-29 10:07 | 47.99291 | 8.36427 | 28566 ft | 413 kts | 176° |
| 2026-04-29 10:07 | 47.96465 | 8.37108 | 28024 ft | 410 kts | 176° |
| 2026-04-29 10:07 | 47.93648 | 8.37783 | 27118 ft | 414 kts | 175° |
| 2026-04-29 10:07 | 47.90781 | 8.38462 | 26026 ft | 421 kts | 175° |
| 2026-04-29 10:08 | 47.87878 | 8.39168 | 24986 ft | 424 kts | 174° |
| 2026-04-29 10:08 | 47.84959 | 8.39885 | 23967 ft | 425 kts | 174° |
| 2026-04-29 10:08 | 47.82086 | 8.40573 | 22900 ft | 423 kts | 174° |
| 2026-04-29 10:08 | 47.79220 | 8.41241 | 22286 ft | 410 kts | 174° |
| 2026-04-29 10:09 | 47.76452 | 8.41912 | 21751 ft | 397 kts | 174° |
| 2026-04-29 10:09 | 47.73757 | 8.42564 | 21236 ft | 387 kts | 174° |
| 2026-04-29 10:09 | 47.71149 | 8.43364 | 20724 ft | 382 kts | 165° |
| 2026-04-29 10:09 | 47.68907 | 8.45412 | 20227 ft | 381 kts | 137° |
| 2026-04-29 10:10 | 47.67474 | 8.48663 | 19749 ft | 376 kts | 113° |
| 2026-04-29 10:10 | 47.66598 | 8.52305 | 19274 ft | 370 kts | 108° |
| 2026-04-29 10:10 | 47.65829 | 8.55907 | 18793 ft | 365 kts | 107° |
| 2026-04-29 10:10 | 47.65026 | 8.59452 | 18300 ft | 360 kts | 110° |
| 2026-04-29 10:11 | 47.64095 | 8.62819 | 17809 ft | 355 kts | 113° |
| 2026-04-29 10:11 | 47.63160 | 8.66179 | 17347 ft | 350 kts | 111° |
| 2026-04-29 10:11 | 47.62345 | 8.69555 | 16888 ft | 346 kts | 108° |
| 2026-04-29 10:11 | 47.61544 | 8.72892 | 16432 ft | 341 kts | 110° |
| 2026-04-29 10:12 | 47.60673 | 8.76135 | 15987 ft | 336 kts | 111° |
| 2026-04-29 10:12 | 47.59811 | 8.79328 | 15549 ft | 332 kts | 110° |
| 2026-04-29 10:12 | 47.59019 | 8.82515 | 15117 ft | 328 kts | 109° |
| 2026-04-29 10:12 | 47.57893 | 8.85404 | 14640 ft | 325 kts | 133° |
| 2026-04-29 10:13 | 47.56020 | 8.87096 | 14170 ft | 321 kts | 163° |
| 2026-04-29 10:13 | 47.53799 | 8.87215 | 13671 ft | 315 kts | 191° |
| 2026-04-29 10:13 | 47.51706 | 8.86375 | 13206 ft | 310 kts | 197° |
| 2026-04-29 10:13 | 47.49630 | 8.85594 | 12758 ft | 306 kts | 192° |
| 2026-04-29 10:14 | 47.47535 | 8.85137 | 12317 ft | 303 kts | 184° |
| 2026-04-29 10:14 | 47.45456 | 8.85145 | 11877 ft | 296 kts | 173° |
| 2026-04-29 10:14 | 47.43486 | 8.85745 | 11438 ft | 282 kts | 166° |
| 2026-04-29 10:14 | 47.41648 | 8.86423 | 11069 ft | 269 kts | 167° |
| 2026-04-29 10:15 | 47.39858 | 8.86923 | 10816 ft | 255 kts | 171° |
| 2026-04-29 10:15 | 47.38144 | 8.87315 | 10563 ft | 244 kts | 171° |
| 2026-04-29 10:15 | 47.36505 | 8.87740 | 10310 ft | 236 kts | 169° |
| 2026-04-29 10:15 | 47.34905 | 8.88175 | 10062 ft | 232 kts | 169° |
| 2026-04-29 10:16 | 47.33333 | 8.88584 | 9793 ft | 228 kts | 169° |
| 2026-04-29 10:16 | 47.32302 | 8.88852 | 9614 ft | 226 kts | 168° |
| 2026-04-29 10:16 | 47.30378 | 8.89969 | 9256 ft | 222 kts | 146° |
| 2026-04-29 10:16 | 47.29190 | 8.91417 | 8996 ft | 223 kts | 130° |
| 2026-04-29 10:17 | 47.28310 | 8.93275 | 8737 ft | 221 kts | 116° |
| 2026-04-29 10:17 | 47.27831 | 8.95408 | 8475 ft | 219 kts | 95° |
| 2026-04-29 10:17 | 47.28174 | 8.97536 | 8152 ft | 222 kts | 60° |
| 2026-04-29 10:17 | 47.29308 | 8.99067 | 7836 ft | 228 kts | 26° |
| 2026-04-29 10:18 | 47.30887 | 8.99340 | 7577 ft | 231 kts | 351° |
| 2026-04-29 10:18 | 47.32274 | 8.98165 | 7332 ft | 236 kts | 314° |
| 2026-04-29 10:18 | 47.33063 | 8.96043 | 7084 ft | 238 kts | 290° |
| 2026-04-29 10:18 | 47.33552 | 8.93763 | 6854 ft | 235 kts | 288° |
| 2026-04-29 10:19 | 47.34046 | 8.91489 | 6614 ft | 230 kts | 289° |
| 2026-04-29 10:19 | 47.34534 | 8.89264 | 6308 ft | 226 kts | 289° |
| 2026-04-29 10:19 | 47.35011 | 8.87070 | 5868 ft | 223 kts | 289° |
| 2026-04-29 10:19 | 47.35476 | 8.84938 | 5434 ft | 207 kts | 288° |
| 2026-04-29 10:20 | 47.35886 | 8.83049 | 5042 ft | 182 kts | 289° |
| 2026-04-29 10:20 | 47.36251 | 8.81362 | 4685 ft | 168 kts | 289° |
| 2026-04-29 10:20 | 47.36607 | 8.79740 | 4342 ft | 164 kts | 289° |
| 2026-04-29 10:20 | 47.36936 | 8.78185 | 4030 ft | 154 kts | 288° |
| 2026-04-29 10:21 | 47.37247 | 8.76760 | 3736 ft | 140 kts | 289° |
| 2026-04-29 10:21 | 47.37540 | 8.75395 | 3461 ft | 139 kts | 290° |
| 2026-04-29 10:21 | 47.37838 | 8.74026 | 3180 ft | 143 kts | 291° |
| 2026-04-29 10:21 | 47.38147 | 8.72602 | 2885 ft | 147 kts | 292° |
| 2026-04-29 10:22 | 47.38450 | 8.71245 | 2588 ft | 135 kts | 292° |
| 2026-04-29 10:22 | 47.38741 | 8.69916 | 2310 ft | 140 kts | 292° |
| 2026-04-29 10:22 | 47.39035 | 8.68532 | 1965 ft | 141 kts | 290° |
| 2026-04-29 10:22 | 47.39338 | 8.67191 | 1659 ft | 137 kts | 288° |
| 2026-04-29 10:23 | 47.39622 | 8.65865 | 1465 ft | 134 kts | 287° |
| 2026-04-29 10:23 | 47.39854 | 8.64786 | 1444 ft | 68 kts | 288° |
| 2026-04-29 10:23 | 47.39958 | 8.64317 | 1435 ft | 35 kts | 288° |
| 2026-04-29 10:23 | 47.40050 | 8.63888 | 1432 ft | 40 kts | 288° |
| 2026-04-29 10:24 | 47.40120 | 8.63571 | 1430 ft | 26 kts | 288° |
| 2026-04-29 10:24 | 47.40175 | 8.63317 | 1422 ft | 20 kts | 287° |
| 2026-04-29 10:24 | 47.40218 | 8.63181 | 1421 ft | 11 kts | 321° |
| 2026-04-29 10:24 | 47.40283 | 8.63109 | 1419 ft | 13 kts | 323° |
| 2026-04-29 10:25 | 47.40322 | 8.63065 | 1419 ft | 5 kts | 322° |
| 2026-04-29 10:25 | 47.40359 | 8.63021 | 1420 ft | 8 kts | 321° |
| 2026-04-29 10:25 | 47.40387 | 8.62989 | 1421 ft | 4 kts | 321° |
| 2026-04-29 10:25 | 47.40423 | 8.62980 | 1422 ft | 6 kts | 24° |
| 2026-04-29 10:26 | 47.40456 | 8.63009 | 1422 ft | 6 kts | 37° |
| 2026-04-29 10:26 | 47.40481 | 8.63055 | 1423 ft | 3 kts | 78° |
| 2026-04-29 10:26 | 47.40476 | 8.63066 | 1422 ft | 0 kts | 145° |
| 2026-04-29 10:42 | 47.40476 | 8.63065 | 1422 ft | 0 kts | 145° |
| 2026-04-29 11:24 | 47.40477 | 8.63065 | 1422 ft | 0 kts | 145° |